Aviation Digital Data Service (ADDS)

Output produced by METARs form (0711 UTC 23 February 2017)
found at http://aviationweather.gov/adds/metars/
 
KGNV 230541Z 2306/2406 03006KT P6SM VCSH SCT008 BKN015 OVC025 
     FM230800 02005KT P6SM BKN008 OVC015 
     FM231300 04010G15KT P6SM SCT008 BKN020 OVC030 
     FM231500 04013G25KT P6SM SCT020 BKN030 OVC150 
     FM231800 05014G25KT P6SM SCT020 BKN040 
     FM240000 04007KT P6SM SCT020 BKN040